Etusivu
METAR-TAF:

METAR-TAF

Lentoasemat :

Takamatsu, Japani

Leveyspiiri: 34-13N, Pituuspiiri: 134-01E, korkeus merenpinnasta: 185 m

Tämänhetkinen sää

Tämä raportti tehtiin 8 tuntia ja 2 minuuttia sitten, kello 12.00 UTC
Tuuli 7 kn etelästä/kaakosta
Lämpötila 18°C
Kosteus 83%
Ilmanpaine 1011 hPa
Näkyvyys 10 km tai enemmän
Muutamia pilviä 2000 ft:n korkeudessa

METAR: RJOT 161200Z 15007KT 9999 FEW020 18/15 Q1011

Aika: 05:02 (20:02 UTC)

Sääennuste

Tämä raportti tehtiin 2 tuntia ja 57 minuuttia sitten, kello 17.05 UTC
Ennuste voimassa 16. päivästä klo 18 UTC - 18. päivään klo 00 UTC
Tuuli 5 kn lounaasta
Näkyvyys 10 km tai enemmän
Muutamia pilviä 1500 ft:n korkeudessa
Hajanaisia pilviä 3000 ft:n korkeudessa
Hajonneita pilviä 5000 ft:n korkeudessa
Tulossa
17. päivästä klo 09 UTC - 17. päivään klo 12 UTC
Tuuli 6 kn etelästä/kaakosta

TAF: RJOT 161705Z 1618/1800 22005KT 9999 FEW015 SCT030 BKN050 BECMG 1709/1712 15006KT

Säähavainnot ja -ennusteet yli 4000 lentoasemalta (METAR- ja TAF-raportit).

Käytössä olevat sääasemat on merkitty karttaan keltaisilla ja punaisilla pisteillä.

Aseta hiiri pisteen päälle nähdäksesi sääaseman nimen.

Klikkaa sitten nähdäksesi säähavainnot ja -ennusteet.

Kartan vaihtaminen: klikkaa mustalla rastilla varustettuja vihreitä pisteitä, niin voit zoomata sisään; viivalla varustettua vihreää pistettä, niin voit zoomata ulos tai vihreitä nuolia, niin pääset viereisille kartoille.


METAR-TAF: